Anchorage, Alaska
Current Conditions -  °F | °C
As of 12:53 PM on Thursday 23 Oct 2014 (Local Time) from PANC Reporting Station
Clear Clear  
Wind Chill: 34°   Ceiling: Unl
Heat Index: 34°   Visibility: 10mi
Dew Point: 23°   Wind: 3mph
Humidity: 64%   Direction: 90°E
Pressure: 29.71"   Gusts: NA
Location:  61.16°N, 150.01°W
Report Text: PANC 232053Z 09003KT 10SM CLR 01/M05 A2971 RMK AO2 SLP064 T00111050 51014
Loading
Personal Weather Stations






























Interactive Weather Map
Tropical Storm Tracking
New forecast layout! Learn more

10-Day Weather Forecast

Advertisements
Track Severe Weather on mobile